Miltona, MN (56354)

7:51 AM CDT on August 27, 2014 (GMT -0500)
Chandler | Change Station
CLOSE
Current Station
Airport
Location: Alexandria,
Elevation: 1424 ft
Nearby Weather Stations

Elev 1424 ft 45.87 °N, 95.39 °W | Updated 58 minutes ago

Mostly Cloudy
Mostly Cloudy
56 °F
Feels Like 56 °F
N
4
Wind Variable Wind from SE

Today
High -- | Low -- °F
--% Chance of Precip.
Yesterday
High -- | Low -- °F
Precip. -- in
6:35 AM 8:08 PM
Waxing Crescent, 3% visible
Pressure 30.22 in
Visibility 7.0 miles
Clouds Scattered Clouds 200 ft
Mostly Cloudy 8500 ft
Dew Point 55 °F
Humidity 97%
Rainfall 0.17 in
Snow Depth Not available.
UV 0 out of 12
Pollen 8.40 out of 12
Air Quality Not available.
Flu Activity Not available.
METAR KAXN 271153Z AUTO 13003KT 7SM SCT002 BKN085 13/13 A3021 RMK AO2 SLP233 60009 70018 T01330128 10150 20133 53000

More Conditions Fewer Conditions

Pressure 30.22 in
Visibility 7.0 miles
Clouds Scattered Clouds 200 ft
Mostly Cloudy 8500 ft
Dew Point 55 °F
Humidity 97%
Rainfall 0.17 in
Snow Depth Not available.
UV 0 out of 12
Pollen 8.40 out of 12
Air Quality Not available.
Flu Activity Not available.
METAR KAXN 271153Z AUTO 13003KT 7SM SCT002 BKN085 13/13 A3021 RMK AO2 SLP233 60009 70018 T01330128 10150 20133 53000

More Conditions Fewer Conditions

10-Day Weather Forecast

Almanac

Astronomy

Aug. 27, 2014 Rise Set
Actual Time 6:35 AM CDT 8:08 PM CDT
Civil Twilight 6:04 AM CDT 8:40 PM CDT
Nautical Twilight 5:26 AM CDT 9:17 PM CDT
Astronomical Twilight 4:44 AM CDT 9:58 PM CDT
Moon 8:41 AM CDT 8:51 PM CDT
Length of Visible Light 14h 35m
Length of Day
13h 33m
Tomorrow will be 3m 5s shorter.
Waxing Crescent, 3% of the Moon is Illuminated
Today
Waxing Crescent
Sep 2
First Quarter
Sep 8
Full
Sep 15
Last Quarter
Sep 24
New

Today's Extremes

State Highs State Lows

Community

WunderPhotos

Upload Photos

1,747,676 photos uploaded!

Nearby

Snow Depth

Station Depth Elevation
No new snow has been reported.

Earthquake Activity

City Distance Mag. Time & Date
No recent earthquake activity has been reported nearby.
Minimum magnitude displayed is 2.5.

Coastal Water Temperatures

Place Temperature
No Stations Reporting

Nearby Weather Stations